»·PEaware :: TPX616 KLAS-KPHX

TPX616 :: KLAS-KPHX

FLIGHT INFORMATION

Flight Status: Arrived
Operator: ATP Experience
More flights by this operator :: More flights under this callsign
Pilot: Dave P. (45)
Aircraft: BOEING 737-600
(B736)
More flights by this aircraft type
Origin: KLAS McCarran Intl
United States
Destination: KPHX Phoenix Sky Harbor Intl
United States
More flights between these airports :: More routes between these airports
Route: PRFUM4 PRFUM WOTRO BRUSR1
File this flight plan on PilotEdge
Remarks: PBN / A1B1C1D1S1S2 DOF / 180513 REG / N736PM EET / KZAB0019 OPR / TPX PER / C RMK / TCAS SIMBRIEF
Altitude:
(Current/Filed)
29,000ft
Speed:
(Current/Filed)
448kts
Departed: 13-May-18 08:54 AM
Arrived: 13-May-18 09:40 AM
Distance/Time
Traveled:
222nm/0:45
Distance/Time
To Go:
Arrived

Flight Plot

Page will automatically refresh every two minutes.

Flight plan parsing failed; only flown route is shown


Map Options




Map Legend


Flown Route
Filed Route
Departure Airport
Arrival Airport
Navaid (VOR, NDB)
Fix

Horizontal Profiles

Position Reports

Time Latitude Longitude Heading Altitude Ground
Speed
13-May-18 08:19 36.080854 -115.138395 315 2189ft 0kts
13-May-18 08:20 36.080854 -115.138395 315 2189ft 0kts
13-May-18 08:21 36.080854 -115.138395 315 2189ft 0kts
13-May-18 08:22 36.080854 -115.138395 315 2189ft 0kts
13-May-18 08:23 36.080854 -115.138395 315 2189ft 0kts
13-May-18 08:24 36.080854 -115.138395 315 2189ft 0kts
13-May-18 08:25 36.080854 -115.138395 315 2189ft 0kts
13-May-18 08:26 36.080854 -115.138395 315 2189ft 0kts
13-May-18 08:27 36.080854 -115.138395 315 2189ft 0kts
13-May-18 08:28 36.080854 -115.138395 315 2189ft 0kts
13-May-18 08:29 36.080854 -115.138395 315 2189ft 0kts
13-May-18 08:30 36.080854 -115.138395 315 2189ft 0kts
13-May-18 08:31 36.080854 -115.138395 315 2189ft 0kts
13-May-18 08:32 36.080854 -115.138395 315 2189ft 0kts
13-May-18 08:33 36.080854 -115.138395 315 2189ft 0kts
13-May-18 08:34 36.080854 -115.138395 315 2189ft 0kts
13-May-18 08:35 36.080854 -115.138395 315 2189ft 0kts
13-May-18 08:36 36.080854 -115.138395 315 2189ft 0kts
13-May-18 08:37 36.080854 -115.138395 315 2189ft 0kts
13-May-18 08:38 36.080854 -115.138395 315 2189ft 0kts
13-May-18 08:39 36.080854 -115.138395 315 2189ft 0kts
13-May-18 08:40 36.080854 -115.138395 315 2189ft 0kts
13-May-18 08:41 36.080854 -115.138395 315 2189ft 0kts
13-May-18 08:42 36.080854 -115.138395 315 2189ft 0kts
13-May-18 08:43 36.080854 -115.138395 315 2189ft 0kts
13-May-18 08:44 36.080755 -115.138273 315 2188ft 2kts
13-May-18 08:45 36.080354 -115.137781 315 2188ft 0kts
13-May-18 08:46 36.080354 -115.137781 315 2188ft 0kts
13-May-18 08:47 36.080064 -115.137387 112 2188ft 14kts
13-May-18 08:48 36.078943 -115.135854 132 2188ft 0kts
13-May-18 08:49 36.078744 -115.135592 133 2188ft 10kts
13-May-18 08:50 36.078244 -115.130553 89 2188ft 15kts
13-May-18 08:51 36.078249 -115.124752 89 2188ft 19kts
13-May-18 08:52 36.076668 -115.121298 180 2188ft 11kts
13-May-18 08:53 36.076349 -115.121810 269 2188ft 3kts
13-May-18 08:54 36.076323 -115.153289 269 2599ft 157kts
13-May-18 08:55 36.076291 -115.210788 269 4582ft 199kts
13-May-18 08:56 36.041844 -115.272516 194 6490ft 277kts
13-May-18 08:57 35.966359 -115.295397 173 7030ft 282kts
13-May-18 08:58 35.889598 -115.269981 154 10722ft 291kts
13-May-18 08:59 35.845393 -115.174926 108 12806ft 363kts
13-May-18 09:00 35.823599 -115.048892 91 15909ft 393kts
13-May-18 09:01 35.833595 -114.909447 85 18855ft 421kts
13-May-18 09:02 35.844789 -114.761696 86 21530ft 446kts
13-May-18 09:03 35.848692 -114.606184 105 23876ft 462kts
13-May-18 09:04 35.788066 -114.468516 131 26172ft 462kts
13-May-18 09:05 35.716155 -114.334204 131 28183ft 476kts
13-May-18 09:06 35.643509 -114.197680 132 29001ft 476kts
13-May-18 09:07 35.570800 -114.061970 132 29017ft 474kts
13-May-18 09:08 35.498249 -113.927178 132 29030ft 473kts
13-May-18 09:09 35.425580 -113.792946 132 29047ft 471kts
13-May-18 09:10 35.353019 -113.659320 132 29053ft 471kts
13-May-18 09:11 35.280793 -113.525605 132 29059ft 471kts
13-May-18 09:12 35.208053 -113.392554 132 29061ft 469kts
13-May-18 09:13 35.135634 -113.260027 132 29075ft 471kts
13-May-18 09:14 35.062285 -113.126152 132 28926ft 465kts
13-May-18 09:15 34.990507 -112.996752 132 27122ft 460kts
13-May-18 09:16 34.930711 -112.889248 132 26289ft 457kts
13-May-18 09:17 34.859959 -112.761676 131 25290ft 451kts
13-May-18 09:18 34.789880 -112.635857 131 24287ft 445kts
13-May-18 09:19 34.707497 -112.492909 137 24129ft 437kts
13-May-18 09:20 34.618578 -112.397249 148 22485ft 418kts
13-May-18 09:21 34.529242 -112.310787 148 20735ft 406kts
13-May-18 09:22 34.457152 -112.243584 157 19344ft 371kts
13-May-18 09:23 34.364743 -112.209333 173 17751ft 337kts
13-May-18 09:24 34.273971 -112.185573 173 16122ft 330kts
13-May-18 09:25 34.184636 -112.162471 172 14614ft 325kts
13-May-18 09:26 34.100458 -112.140986 175 13200ft 295kts
13-May-18 09:27 34.020723 -112.144169 188 12071ft 285kts
13-May-18 09:28 33.941763 -112.153235 187 10976ft 283kts
13-May-18 09:29 33.865794 -112.165670 190 9793ft 269kts
13-May-18 09:30 33.792572 -112.181575 188 8814ft 265kts
13-May-18 09:31 33.721754 -112.196542 188 8149ft 237kts
13-May-18 09:32 33.658639 -112.209771 188 6922ft 228kts
13-May-18 09:33 33.596802 -112.222326 188 5609ft 223kts
13-May-18 09:34 33.535695 -112.234488 188 4389ft 216kts
13-May-18 09:35 33.482581 -112.245099 188 3470ft 185kts
13-May-18 09:36 33.443851 -112.209909 120 2998ft 187kts
13-May-18 09:37 33.440765 -112.149156 91 2978ft 173kts
13-May-18 09:38 33.440824 -112.095541 92 2267ft 142kts
13-May-18 09:39 33.440825 -112.050558 93 1541ft 131kts
13-May-18 09:40 33.440838 -112.012173 89 1142ft 28kts
13-May-18 09:41 33.439322 -112.011560 206 1143ft 10kts
13-May-18 09:42 33.437950 -112.009980 180 1143ft 14kts
13-May-18 09:43 33.436400 -112.009397 89 1143ft 1kts
13-May-18 09:44 33.436401 -112.009331 89 1143ft 0kts
13-May-18 09:45 33.436401 -112.009331 89 1143ft 0kts
13-May-18 09:46 33.436401 -112.009331 89 1143ft 0kts
13-May-18 09:47 33.436401 -112.009331 89 1143ft 0kts
13-May-18 09:48 33.436401 -112.009331 89 1143ft 0kts

Navigation Log

Ident Type
Flight plan parsing failed, navigation log unavailable